Terminal Aerodrome Forecast
Issued by NWS Bismarck, ND

Home | Current Version | Previous Version | Text Only | Print | Product List | Glossary Off
Versions: 1 2 3 4 5 6 7 8 9 10 11 12 13 14 15 16 17 18 19 20 21

000
FTUS43 KBIS 192210 AAC
TAFBIS
TAF AMD
KBIS 192210Z 1922/2018 VRB03KT P6SM FEW100
     FM200100 14004KT 3SM BR FEW090
     FM200300 13004KT 1 1/2SM BR FEW060
     FM200800 14004KT 1/2SM FZFG VV004
     FM201600 VRB03KT 2SM BR BKN100=

USA.gov is the U.S. government's official web portal to all federal, state and local government web resources and services.